sensor_id;sensor_type;location;lat;lon;timestamp;P1;durP1;ratioP1;P2;durP2;ratioP2
13609;SDS011;6876;50.788;4.940;2022-10-26T00:02:32;19.73;;;18.23;;
13609;SDS011;6876;50.788;4.940;2022-10-26T00:05:19;19.97;;;18.30;;
13609;SDS011;6876;50.788;4.940;2022-10-26T00:08:06;23.17;;;21.40;;
13609;SDS011;6876;50.788;4.940;2022-10-26T00:10:55;22.67;;;20.90;;
13609;SDS011;6876;50.788;4.940;2022-10-26T00:13:43;25.80;;;23.70;;
13609;SDS011;6876;50.788;4.940;2022-10-26T00:16:31;28.20;;;25.87;;
13609;SDS011;6876;50.788;4.940;2022-10-26T00:19:20;26.30;;;24.30;;
13609;SDS011;6876;50.788;4.940;2022-10-26T00:22:07;26.10;;;24.30;;
13609;SDS011;6876;50.788;4.940;2022-10-26T00:24:54;29.97;;;27.70;;
13609;SDS011;6876;50.788;4.940;2022-10-26T00:27:42;28.27;;;26.07;;
13609;SDS011;6876;50.788;4.940;2022-10-26T00:30:29;29.87;;;27.83;;
13609;SDS011;6876;50.788;4.940;2022-10-26T00:33:16;33.27;;;31.20;;
13609;SDS011;6876;50.788;4.940;2022-10-26T00:36:05;33.37;;;31.00;;
13609;SDS011;6876;50.788;4.940;2022-10-26T00:38:55;36.40;;;34.20;;
13609;SDS011;6876;50.788;4.940;2022-10-26T00:41:42;36.37;;;33.93;;
13609;SDS011;6876;50.788;4.940;2022-10-26T00:47:46;36.37;;;33.63;;
13609;SDS011;6876;50.788;4.940;2022-10-26T00:50:38;36.17;;;33.83;;
13609;SDS011;6876;50.788;4.940;2022-10-26T00:53:29;36.73;;;34.23;;
13609;SDS011;6876;50.788;4.940;2022-10-26T00:56:18;37.77;;;35.33;;
13609;SDS011;6876;50.788;4.940;2022-10-26T00:59:05;35.63;;;33.53;;
13609;SDS011;6876;50.788;4.940;2022-10-26T01:01:55;37.30;;;34.83;;
13609;SDS011;6876;50.788;4.940;2022-10-26T01:04:43;35.97;;;33.57;;
13609;SDS011;6876;50.788;4.940;2022-10-26T01:07:31;36.07;;;33.87;;
13609;SDS011;6876;50.788;4.940;2022-10-26T01:10:21;36.33;;;33.83;;
13609;SDS011;6876;50.788;4.940;2022-10-26T01:13:08;32.40;;;30.33;;
13609;SDS011;6876;50.788;4.940;2022-10-26T01:15:59;33.90;;;31.73;;
13609;SDS011;6876;50.788;4.940;2022-10-26T01:18:58;29.60;;;27.70;;
13609;SDS011;6876;50.788;4.940;2022-10-26T01:22:00;28.70;;;26.87;;
13609;SDS011;6876;50.788;4.940;2022-10-26T01:25:03;29.97;;;27.97;;
13609;SDS011;6876;50.788;4.940;2022-10-26T01:28:00;21.67;;;20.17;;
13609;SDS011;6876;50.788;4.940;2022-10-26T01:30:54;20.17;;;18.40;;
13609;SDS011;6876;50.788;4.940;2022-10-26T01:33:43;19.17;;;17.57;;
13609;SDS011;6876;50.788;4.940;2022-10-26T01:36:38;15.63;;;14.33;;
13609;SDS011;6876;50.788;4.940;2022-10-26T01:39:32;14.47;;;13.27;;
13609;SDS011;6876;50.788;4.940;2022-10-26T01:42:24;14.87;;;13.57;;
13609;SDS011;6876;50.788;4.940;2022-10-26T01:45:13;14.33;;;13.27;;
13609;SDS011;6876;50.788;4.940;2022-10-26T01:48:03;15.67;;;14.13;;
13609;SDS011;6876;50.788;4.940;2022-10-26T01:50:52;13.23;;;12.43;;
13609;SDS011;6876;50.788;4.940;2022-10-26T01:53:41;14.93;;;13.63;;
13609;SDS011;6876;50.788;4.940;2022-10-26T01:56:33;16.50;;;15.10;;
13609;SDS011;6876;50.788;4.940;2022-10-26T01:59:25;17.10;;;15.77;;
13609;SDS011;6876;50.788;4.940;2022-10-26T02:02:29;15.10;;;13.90;;
13609;SDS011;6876;50.788;4.940;2022-10-26T02:05:33;16.83;;;15.43;;
13609;SDS011;6876;50.788;4.940;2022-10-26T02:08:36;17.47;;;16.17;;
13609;SDS011;6876;50.788;4.940;2022-10-26T02:11:41;19.47;;;17.73;;
13609;SDS011;6876;50.788;4.940;2022-10-26T02:14:32;18.07;;;16.57;;
13609;SDS011;6876;50.788;4.940;2022-10-26T02:17:25;19.37;;;17.77;;
13609;SDS011;6876;50.788;4.940;2022-10-26T02:20:16;18.83;;;17.43;;
13609;SDS011;6876;50.788;4.940;2022-10-26T02:23:09;19.70;;;17.83;;
13609;SDS011;6876;50.788;4.940;2022-10-26T02:25:58;13.33;;;12.37;;
13609;SDS011;6876;50.788;4.940;2022-10-26T02:28:47;16.80;;;15.77;;
13609;SDS011;6876;50.788;4.940;2022-10-26T02:31:38;17.20;;;16.13;;
13609;SDS011;6876;50.788;4.940;2022-10-26T02:34:27;17.07;;;15.97;;
13609;SDS011;6876;50.788;4.940;2022-10-26T02:37:17;13.77;;;12.77;;
13609;SDS011;6876;50.788;4.940;2022-10-26T02:40:08;14.10;;;13.30;;
13609;SDS011;6876;50.788;4.940;2022-10-26T02:43:01;16.07;;;14.97;;
13609;SDS011;6876;50.788;4.940;2022-10-26T02:45:52;18.37;;;17.43;;
13609;SDS011;6876;50.788;4.940;2022-10-26T02:48:42;17.70;;;16.70;;
13609;SDS011;6876;50.788;4.940;2022-10-26T02:51:31;17.93;;;16.83;;
13609;SDS011;6876;50.788;4.940;2022-10-26T02:54:23;18.93;;;17.63;;
13609;SDS011;6876;50.788;4.940;2022-10-26T02:57:19;17.23;;;16.13;;
13609;SDS011;6876;50.788;4.940;2022-10-26T03:00:12;18.43;;;17.43;;
13609;SDS011;6876;50.788;4.940;2022-10-26T03:03:02;18.73;;;17.70;;
13609;SDS011;6876;50.788;4.940;2022-10-26T03:05:50;18.50;;;17.23;;
13609;SDS011;6876;50.788;4.940;2022-10-26T03:08:38;20.63;;;19.43;;
13609;SDS011;6876;50.788;4.940;2022-10-26T03:11:25;19.83;;;18.67;;
13609;SDS011;6876;50.788;4.940;2022-10-26T03:14:14;23.10;;;21.60;;
13609;SDS011;6876;50.788;4.940;2022-10-26T03:17:01;21.63;;;20.53;;
13609;SDS011;6876;50.788;4.940;2022-10-26T03:19:48;21.80;;;20.63;;
13609;SDS011;6876;50.788;4.940;2022-10-26T03:22:35;20.03;;;18.63;;
13609;SDS011;6876;50.788;4.940;2022-10-26T03:25:22;19.33;;;18.13;;
13609;SDS011;6876;50.788;4.940;2022-10-26T03:28:10;20.57;;;19.37;;
13609;SDS011;6876;50.788;4.940;2022-10-26T03:30:58;20.00;;;18.80;;
13609;SDS011;6876;50.788;4.940;2022-10-26T03:33:46;19.97;;;18.97;;
13609;SDS011;6876;50.788;4.940;2022-10-26T03:36:33;20.60;;;19.33;;
13609;SDS011;6876;50.788;4.940;2022-10-26T03:39:20;20.67;;;19.40;;
13609;SDS011;6876;50.788;4.940;2022-10-26T03:42:07;30.40;;;28.73;;
13609;SDS011;6876;50.788;4.940;2022-10-26T03:44:54;22.93;;;21.60;;
13609;SDS011;6876;50.788;4.940;2022-10-26T03:47:44;21.60;;;20.23;;
13609;SDS011;6876;50.788;4.940;2022-10-26T03:50:31;23.03;;;21.43;;
13609;SDS011;6876;50.788;4.940;2022-10-26T03:53:18;21.20;;;20.07;;
13609;SDS011;6876;50.788;4.940;2022-10-26T03:56:06;22.17;;;21.00;;
13609;SDS011;6876;50.788;4.940;2022-10-26T03:58:53;18.47;;;17.50;;
13609;SDS011;6876;50.788;4.940;2022-10-26T04:01:40;19.03;;;18.03;;
13609;SDS011;6876;50.788;4.940;2022-10-26T04:04:29;18.30;;;17.23;;
13609;SDS011;6876;50.788;4.940;2022-10-26T04:07:16;23.93;;;22.70;;
13609;SDS011;6876;50.788;4.940;2022-10-26T04:10:04;20.17;;;19.03;;
13609;SDS011;6876;50.788;4.940;2022-10-26T04:12:52;20.47;;;19.30;;
13609;SDS011;6876;50.788;4.940;2022-10-26T04:15:39;23.57;;;22.17;;
13609;SDS011;6876;50.788;4.940;2022-10-26T04:18:27;20.13;;;19.13;;
13609;SDS011;6876;50.788;4.940;2022-10-26T04:21:16;21.80;;;20.60;;
13609;SDS011;6876;50.788;4.940;2022-10-26T04:24:03;21.87;;;20.80;;
13609;SDS011;6876;50.788;4.940;2022-10-26T04:26:51;20.87;;;19.73;;
13609;SDS011;6876;50.788;4.940;2022-10-26T04:29:38;21.60;;;20.40;;
13609;SDS011;6876;50.788;4.940;2022-10-26T04:32:25;22.83;;;21.67;;
13609;SDS011;6876;50.788;4.940;2022-10-26T04:35:12;24.90;;;23.70;;
13609;SDS011;6876;50.788;4.940;2022-10-26T04:38:02;25.73;;;24.13;;
13609;SDS011;6876;50.788;4.940;2022-10-26T04:40:51;25.00;;;23.73;;
13609;SDS011;6876;50.788;4.940;2022-10-26T04:43:39;29.30;;;27.57;;
13609;SDS011;6876;50.788;4.940;2022-10-26T04:46:26;21.67;;;20.57;;
13609;SDS011;6876;50.788;4.940;2022-10-26T04:49:13;24.53;;;22.83;;
13609;SDS011;6876;50.788;4.940;2022-10-26T04:52:01;27.53;;;25.90;;
13609;SDS011;6876;50.788;4.940;2022-10-26T04:54:49;27.67;;;26.10;;
13609;SDS011;6876;50.788;4.940;2022-10-26T04:57:36;25.87;;;24.40;;
13609;SDS011;6876;50.788;4.940;2022-10-26T05:00:23;24.40;;;22.90;;
13609;SDS011;6876;50.788;4.940;2022-10-26T05:03:11;28.40;;;26.60;;
13609;SDS011;6876;50.788;4.940;2022-10-26T05:05:58;26.33;;;24.87;;
13609;SDS011;6876;50.788;4.940;2022-10-26T05:08:46;25.60;;;23.97;;
13609;SDS011;6876;50.788;4.940;2022-10-26T05:11:35;24.53;;;23.07;;
13609;SDS011;6876;50.788;4.940;2022-10-26T05:14:22;25.57;;;24.17;;
13609;SDS011;6876;50.788;4.940;2022-10-26T05:17:09;25.17;;;23.67;;
13609;SDS011;6876;50.788;4.940;2022-10-26T05:19:57;21.80;;;20.60;;
13609;SDS011;6876;50.788;4.940;2022-10-26T05:22:51;22.53;;;21.10;;
13609;SDS011;6876;50.788;4.940;2022-10-26T05:25:38;22.47;;;21.17;;
13609;SDS011;6876;50.788;4.940;2022-10-26T05:28:27;20.73;;;19.50;;
13609;SDS011;6876;50.788;4.940;2022-10-26T05:31:14;18.20;;;17.00;;
13609;SDS011;6876;50.788;4.940;2022-10-26T05:34:01;18.73;;;16.77;;
13609;SDS011;6876;50.788;4.940;2022-10-26T05:36:51;19.33;;;17.93;;
13609;SDS011;6876;50.788;4.940;2022-10-26T05:39:38;17.50;;;16.20;;
13609;SDS011;6876;50.788;4.940;2022-10-26T05:42:27;15.83;;;14.77;;
13609;SDS011;6876;50.788;4.940;2022-10-26T05:45:16;14.90;;;14.10;;
13609;SDS011;6876;50.788;4.940;2022-10-26T05:48:04;15.77;;;14.87;;
13609;SDS011;6876;50.788;4.940;2022-10-26T05:50:51;15.17;;;14.17;;
13609;SDS011;6876;50.788;4.940;2022-10-26T05:53:38;15.13;;;14.03;;
13609;SDS011;6876;50.788;4.940;2022-10-26T05:56:31;14.73;;;13.87;;
13609;SDS011;6876;50.788;4.940;2022-10-26T05:59:20;15.03;;;13.93;;
13609;SDS011;6876;50.788;4.940;2022-10-26T06:02:13;15.10;;;13.97;;
13609;SDS011;6876;50.788;4.940;2022-10-26T06:05:10;15.00;;;13.90;;
13609;SDS011;6876;50.788;4.940;2022-10-26T06:08:06;15.27;;;14.07;;
13609;SDS011;6876;50.788;4.940;2022-10-26T06:10:55;14.43;;;13.43;;
13609;SDS011;6876;50.788;4.940;2022-10-26T06:13:44;14.17;;;13.37;;
13609;SDS011;6876;50.788;4.940;2022-10-26T06:16:34;16.27;;;14.57;;
13609;SDS011;6876;50.788;4.940;2022-10-26T06:19:31;15.03;;;13.93;;
13609;SDS011;6876;50.788;4.940;2022-10-26T06:22:38;15.60;;;14.60;;
13609;SDS011;6876;50.788;4.940;2022-10-26T06:25:39;13.13;;;12.03;;
13609;SDS011;6876;50.788;4.940;2022-10-26T06:28:35;13.13;;;12.33;;
13609;SDS011;6876;50.788;4.940;2022-10-26T06:31:28;14.77;;;13.77;;
13609;SDS011;6876;50.788;4.940;2022-10-26T06:34:18;14.77;;;13.37;;
13609;SDS011;6876;50.788;4.940;2022-10-26T06:37:11;13.17;;;12.07;;
13609;SDS011;6876;50.788;4.940;2022-10-26T06:39:59;13.43;;;12.07;;
13609;SDS011;6876;50.788;4.940;2022-10-26T06:42:48;13.40;;;12.40;;
13609;SDS011;6876;50.788;4.940;2022-10-26T06:45:35;12.97;;;11.80;;
13609;SDS011;6876;50.788;4.940;2022-10-26T06:48:24;12.20;;;11.30;;
13609;SDS011;6876;50.788;4.940;2022-10-26T06:51:15;13.53;;;12.63;;
13609;SDS011;6876;50.788;4.940;2022-10-26T06:54:05;13.30;;;12.40;;
13609;SDS011;6876;50.788;4.940;2022-10-26T06:56:59;12.77;;;11.80;;
13609;SDS011;6876;50.788;4.940;2022-10-26T06:59:49;13.37;;;12.37;;
13609;SDS011;6876;50.788;4.940;2022-10-26T07:02:37;14.10;;;12.83;;
13609;SDS011;6876;50.788;4.940;2022-10-26T07:05:24;13.40;;;12.33;;
13609;SDS011;6876;50.788;4.940;2022-10-26T07:08:12;14.00;;;13.00;;
13609;SDS011;6876;50.788;4.940;2022-10-26T07:11:00;14.27;;;13.30;;
13609;SDS011;6876;50.788;4.940;2022-10-26T07:13:49;14.83;;;13.43;;
13609;SDS011;6876;50.788;4.940;2022-10-26T07:16:36;15.20;;;14.20;;
13609;SDS011;6876;50.788;4.940;2022-10-26T07:19:23;15.33;;;14.13;;
13609;SDS011;6876;50.788;4.940;2022-10-26T07:22:10;16.20;;;14.97;;
13609;SDS011;6876;50.788;4.940;2022-10-26T07:24:58;15.40;;;14.10;;
13609;SDS011;6876;50.788;4.940;2022-10-26T07:27:46;15.90;;;14.80;;
13609;SDS011;6876;50.788;4.940;2022-10-26T07:30:33;17.80;;;16.27;;
13609;SDS011;6876;50.788;4.940;2022-10-26T07:33:21;25.00;;;23.30;;
13609;SDS011;6876;50.788;4.940;2022-10-26T07:36:08;25.07;;;23.37;;
13609;SDS011;6876;50.788;4.940;2022-10-26T07:38:56;22.33;;;20.83;;
13609;SDS011;6876;50.788;4.940;2022-10-26T07:41:43;21.97;;;20.67;;
13609;SDS011;6876;50.788;4.940;2022-10-26T07:44:32;24.27;;;22.93;;
13609;SDS011;6876;50.788;4.940;2022-10-26T07:47:19;22.67;;;21.13;;
13609;SDS011;6876;50.788;4.940;2022-10-26T07:50:07;22.27;;;20.93;;
13609;SDS011;6876;50.788;4.940;2022-10-26T07:52:56;23.40;;;22.10;;
13609;SDS011;6876;50.788;4.940;2022-10-26T07:55:50;21.67;;;20.37;;
13609;SDS011;6876;50.788;4.940;2022-10-26T07:58:38;22.93;;;21.23;;
13609;SDS011;6876;50.788;4.940;2022-10-26T08:01:28;35.33;;;33.17;;
13609;SDS011;6876;50.788;4.940;2022-10-26T08:04:15;39.00;;;36.60;;
13609;SDS011;6876;50.788;4.940;2022-10-26T08:07:02;24.20;;;22.70;;
13609;SDS011;6876;50.788;4.940;2022-10-26T08:09:49;20.58;;;19.25;;
13609;SDS011;6876;50.788;4.940;2022-10-26T08:12:37;17.85;;;16.67;;
13609;SDS011;6876;50.788;4.940;2022-10-26T08:15:24;15.15;;;13.63;;
13609;SDS011;6876;50.788;4.940;2022-10-26T08:18:13;9.75;;;8.98;;
13609;SDS011;6876;50.788;4.940;2022-10-26T08:21:01;8.02;;;6.22;;
13609;SDS011;6876;50.788;4.940;2022-10-26T08:23:50;8.88;;;7.47;;
13609;SDS011;6876;50.788;4.940;2022-10-26T08:26:37;12.63;;;11.77;;
13609;SDS011;6876;50.788;4.940;2022-10-26T08:29:24;14.07;;;13.10;;
13609;SDS011;6876;50.788;4.940;2022-10-26T08:32:11;15.88;;;14.90;;
13609;SDS011;6876;50.788;4.940;2022-10-26T08:35:00;13.98;;;13.07;;
13609;SDS011;6876;50.788;4.940;2022-10-26T08:37:47;14.95;;;13.80;;
13609;SDS011;6876;50.788;4.940;2022-10-26T08:40:35;14.52;;;13.43;;
13609;SDS011;6876;50.788;4.940;2022-10-26T08:43:26;14.35;;;13.38;;
13609;SDS011;6876;50.788;4.940;2022-10-26T08:46:19;12.23;;;11.52;;
13609;SDS011;6876;50.788;4.940;2022-10-26T08:49:12;12.95;;;11.82;;
13609;SDS011;6876;50.788;4.940;2022-10-26T08:52:08;15.27;;;14.02;;
13609;SDS011;6876;50.788;4.940;2022-10-26T08:54:59;16.08;;;14.88;;
13609;SDS011;6876;50.788;4.940;2022-10-26T08:57:49;13.88;;;12.77;;
13609;SDS011;6876;50.788;4.940;2022-10-26T09:00:38;13.05;;;12.05;;
13609;SDS011;6876;50.788;4.940;2022-10-26T09:03:26;11.63;;;10.82;;
13609;SDS011;6876;50.788;4.940;2022-10-26T09:06:16;18.33;;;17.23;;
13609;SDS011;6876;50.788;4.940;2022-10-26T09:09:12;18.48;;;16.85;;
13609;SDS011;6876;50.788;4.940;2022-10-26T09:12:04;17.00;;;15.90;;
13609;SDS011;6876;50.788;4.940;2022-10-26T09:14:58;18.33;;;16.77;;
13609;SDS011;6876;50.788;4.940;2022-10-26T09:17:56;18.80;;;17.38;;
13609;SDS011;6876;50.788;4.940;2022-10-26T09:20:56;22.80;;;20.52;;
13609;SDS011;6876;50.788;4.940;2022-10-26T09:23:57;20.65;;;19.27;;
13609;SDS011;6876;50.788;4.940;2022-10-26T09:26:52;19.70;;;18.45;;
13609;SDS011;6876;50.788;4.940;2022-10-26T09:29:41;17.17;;;15.98;;
13609;SDS011;6876;50.788;4.940;2022-10-26T09:32:32;18.98;;;17.80;;
13609;SDS011;6876;50.788;4.940;2022-10-26T09:35:22;18.42;;;16.92;;
13609;SDS011;6876;50.788;4.940;2022-10-26T09:38:13;24.02;;;22.63;;
13609;SDS011;6876;50.788;4.940;2022-10-26T09:41:05;21.08;;;19.67;;
13609;SDS011;6876;50.788;4.940;2022-10-26T09:44:02;15.95;;;14.85;;
13609;SDS011;6876;50.788;4.940;2022-10-26T09:46:59;28.92;;;27.05;;
13609;SDS011;6876;50.788;4.940;2022-10-26T09:49:52;24.13;;;22.77;;
13609;SDS011;6876;50.788;4.940;2022-10-26T09:52:44;21.17;;;19.88;;
13609;SDS011;6876;50.788;4.940;2022-10-26T09:55:31;35.28;;;32.97;;
13609;SDS011;6876;50.788;4.940;2022-10-26T09:58:25;22.90;;;21.58;;
13609;SDS011;6876;50.788;4.940;2022-10-26T10:01:22;27.83;;;25.08;;
13609;SDS011;6876;50.788;4.940;2022-10-26T10:04:18;24.35;;;22.92;;
13609;SDS011;6876;50.788;4.940;2022-10-26T10:07:11;24.77;;;23.13;;
13609;SDS011;6876;50.788;4.940;2022-10-26T10:10:05;25.25;;;23.83;;
13609;SDS011;6876;50.788;4.940;2022-10-26T10:12:55;26.42;;;24.90;;
13609;SDS011;6876;50.788;4.940;2022-10-26T10:15:49;25.98;;;24.25;;
13609;SDS011;6876;50.788;4.940;2022-10-26T10:18:40;23.25;;;21.67;;
13609;SDS011;6876;50.788;4.940;2022-10-26T10:21:34;23.52;;;22.35;;
13609;SDS011;6876;50.788;4.940;2022-10-26T10:24:24;25.10;;;23.67;;
13609;SDS011;6876;50.788;4.940;2022-10-26T10:27:15;24.67;;;22.98;;
13609;SDS011;6876;50.788;4.940;2022-10-26T10:30:14;23.13;;;21.80;;
13609;SDS011;6876;50.788;4.940;2022-10-26T10:33:08;42.35;;;39.63;;
13609;SDS011;6876;50.788;4.940;2022-10-26T10:35:58;28.73;;;27.10;;
13609;SDS011;6876;50.788;4.940;2022-10-26T10:38:48;28.23;;;26.58;;
13609;SDS011;6876;50.788;4.940;2022-10-26T10:41:42;24.15;;;22.83;;
13609;SDS011;6876;50.788;4.940;2022-10-26T10:44:31;25.92;;;24.42;;
13609;SDS011;6876;50.788;4.940;2022-10-26T10:47:21;27.33;;;25.45;;
13609;SDS011;6876;50.788;4.940;2022-10-26T10:50:14;27.20;;;25.85;;
13609;SDS011;6876;50.788;4.940;2022-10-26T10:53:15;27.30;;;25.67;;
13609;SDS011;6876;50.788;4.940;2022-10-26T10:56:13;21.65;;;20.45;;
13609;SDS011;6876;50.788;4.940;2022-10-26T11:02:41;19.63;;;18.52;;
13609;SDS011;6876;50.788;4.940;2022-10-26T11:05:56;19.80;;;18.60;;
13609;SDS011;6876;50.788;4.940;2022-10-26T11:09:01;22.65;;;21.25;;
13609;SDS011;6876;50.788;4.940;2022-10-26T11:11:52;23.05;;;21.83;;
13609;SDS011;6876;50.788;4.940;2022-10-26T11:14:41;23.70;;;22.42;;
13609;SDS011;6876;50.788;4.940;2022-10-26T11:17:31;25.13;;;23.63;;
13609;SDS011;6876;50.788;4.940;2022-10-26T11:20:25;23.67;;;22.33;;
13609;SDS011;6876;50.788;4.940;2022-10-26T11:23:16;22.55;;;21.08;;
13609;SDS011;6876;50.788;4.940;2022-10-26T11:26:10;26.33;;;24.83;;
13609;SDS011;6876;50.788;4.940;2022-10-26T11:29:02;25.60;;;23.90;;
13609;SDS011;6876;50.788;4.940;2022-10-26T11:31:57;25.33;;;23.92;;
13609;SDS011;6876;50.788;4.940;2022-10-26T11:34:52;24.48;;;23.15;;
13609;SDS011;6876;50.788;4.940;2022-10-26T11:37:47;44.20;;;41.35;;
13609;SDS011;6876;50.788;4.940;2022-10-26T11:40:40;24.13;;;22.98;;
13609;SDS011;6876;50.788;4.940;2022-10-26T11:43:36;24.75;;;23.20;;
13609;SDS011;6876;50.788;4.940;2022-10-26T11:46:26;25.10;;;23.70;;
13609;SDS011;6876;50.788;4.940;2022-10-26T11:49:20;21.35;;;19.92;;
13609;SDS011;6876;50.788;4.940;2022-10-26T11:52:12;20.02;;;19.02;;
13609;SDS011;6876;50.788;4.940;2022-10-26T11:55:03;19.63;;;18.60;;
13609;SDS011;6876;50.788;4.940;2022-10-26T11:57:51;20.25;;;18.88;;
13609;SDS011;6876;50.788;4.940;2022-10-26T12:00:42;17.95;;;17.05;;
13609;SDS011;6876;50.788;4.940;2022-10-26T12:03:35;21.75;;;20.55;;
13609;SDS011;6876;50.788;4.940;2022-10-26T12:06:30;23.67;;;22.35;;
13609;SDS011;6876;50.788;4.940;2022-10-26T12:09:19;26.30;;;24.88;;
13609;SDS011;6876;50.788;4.940;2022-10-26T12:12:11;25.58;;;24.08;;
13609;SDS011;6876;50.788;4.940;2022-10-26T12:15:12;24.25;;;23.02;;
13609;SDS011;6876;50.788;4.940;2022-10-26T12:18:08;23.05;;;21.48;;
13609;SDS011;6876;50.788;4.940;2022-10-26T12:21:00;22.08;;;20.75;;
13609;SDS011;6876;50.788;4.940;2022-10-26T12:23:53;22.42;;;21.17;;
13609;SDS011;6876;50.788;4.940;2022-10-26T12:26:47;28.60;;;27.02;;
13609;SDS011;6876;50.788;4.940;2022-10-26T12:29:46;25.02;;;23.58;;
13609;SDS011;6876;50.788;4.940;2022-10-26T12:35:42;25.75;;;24.33;;
13609;SDS011;6876;50.788;4.940;2022-10-26T12:41:42;20.42;;;18.92;;
13609;SDS011;6876;50.788;4.940;2022-10-26T12:48:00;23.27;;;21.95;;
13609;SDS011;6876;50.788;4.940;2022-10-26T12:50:52;26.00;;;24.45;;
13609;SDS011;6876;50.788;4.940;2022-10-26T12:53:39;24.48;;;23.00;;
13609;SDS011;6876;50.788;4.940;2022-10-26T12:56:28;28.38;;;26.58;;
13609;SDS011;6876;50.788;4.940;2022-10-26T12:59:22;34.17;;;31.55;;
13609;SDS011;6876;50.788;4.940;2022-10-26T13:02:31;31.65;;;29.80;;
13609;SDS011;6876;50.788;4.940;2022-10-26T13:05:31;27.50;;;25.60;;
13609;SDS011;6876;50.788;4.940;2022-10-26T13:11:43;34.47;;;32.53;;
13609;SDS011;6876;50.788;4.940;2022-10-26T13:14:34;34.42;;;31.83;;
13609;SDS011;6876;50.788;4.940;2022-10-26T13:17:26;37.78;;;35.72;;
13609;SDS011;6876;50.788;4.940;2022-10-26T13:20:15;39.38;;;37.38;;
13609;SDS011;6876;50.788;4.940;2022-10-26T13:23:13;27.38;;;25.70;;
13609;SDS011;6876;50.788;4.940;2022-10-26T13:26:04;32.50;;;30.70;;
13609;SDS011;6876;50.788;4.940;2022-10-26T13:28:56;31.33;;;29.77;;
13609;SDS011;6876;50.788;4.940;2022-10-26T13:34:50;31.48;;;29.60;;
13609;SDS011;6876;50.788;4.940;2022-10-26T13:37:38;30.27;;;28.58;;
13609;SDS011;6876;50.788;4.940;2022-10-26T13:40:29;31.60;;;30.05;;
13609;SDS011;6876;50.788;4.940;2022-10-26T13:43:20;29.65;;;28.13;;
13609;SDS011;6876;50.788;4.940;2022-10-26T13:46:17;24.48;;;23.08;;
13609;SDS011;6876;50.788;4.940;2022-10-26T13:49:12;31.27;;;29.45;;
13609;SDS011;6876;50.788;4.940;2022-10-26T13:52:04;33.40;;;31.52;;
13609;SDS011;6876;50.788;4.940;2022-10-26T13:55:00;31.00;;;29.30;;
13609;SDS011;6876;50.788;4.940;2022-10-26T13:57:56;73.15;;;69.25;;
13609;SDS011;6876;50.788;4.940;2022-10-26T14:01:00;54.70;;;51.88;;
13609;SDS011;6876;50.788;4.940;2022-10-26T14:03:49;33.90;;;32.17;;
13609;SDS011;6876;50.788;4.940;2022-10-26T14:06:36;30.58;;;28.92;;
13609;SDS011;6876;50.788;4.940;2022-10-26T14:09:27;32.88;;;31.13;;
13609;SDS011;6876;50.788;4.940;2022-10-26T14:12:15;31.00;;;29.33;;
13609;SDS011;6876;50.788;4.940;2022-10-26T14:15:04;27.80;;;26.08;;
13609;SDS011;6876;50.788;4.940;2022-10-26T14:17:55;30.20;;;28.58;;
13609;SDS011;6876;50.788;4.940;2022-10-26T14:20:46;31.02;;;29.35;;
13609;SDS011;6876;50.788;4.940;2022-10-26T14:23:36;33.03;;;31.20;;
13609;SDS011;6876;50.788;4.940;2022-10-26T14:26:37;30.45;;;28.55;;
13609;SDS011;6876;50.788;4.940;2022-10-26T14:29:25;27.58;;;25.88;;
13609;SDS011;6876;50.788;4.940;2022-10-26T14:32:20;32.17;;;30.40;;
13609;SDS011;6876;50.788;4.940;2022-10-26T14:35:12;33.45;;;31.67;;
13609;SDS011;6876;50.788;4.940;2022-10-26T14:38:01;37.65;;;35.25;;
13609;SDS011;6876;50.788;4.940;2022-10-26T14:40:51;34.85;;;32.70;;
13609;SDS011;6876;50.788;4.940;2022-10-26T14:43:41;34.70;;;32.85;;
13609;SDS011;6876;50.788;4.940;2022-10-26T14:46:31;34.22;;;32.38;;
13609;SDS011;6876;50.788;4.940;2022-10-26T14:49:21;35.58;;;33.67;;
13609;SDS011;6876;50.788;4.940;2022-10-26T14:52:12;41.03;;;38.95;;
13609;SDS011;6876;50.788;4.940;2022-10-26T14:55:10;35.00;;;33.08;;
13609;SDS011;6876;50.788;4.940;2022-10-26T14:58:05;35.67;;;33.63;;
13609;SDS011;6876;50.788;4.940;2022-10-26T15:04:27;38.05;;;35.85;;
13609;SDS011;6876;50.788;4.940;2022-10-26T15:07:18;35.72;;;33.67;;
13609;SDS011;6876;50.788;4.940;2022-10-26T15:10:35;38.38;;;36.17;;
13609;SDS011;6876;50.788;4.940;2022-10-26T15:13:31;35.67;;;33.35;;
13609;SDS011;6876;50.788;4.940;2022-10-26T15:16:21;43.10;;;40.22;;
13609;SDS011;6876;50.788;4.940;2022-10-26T15:19:10;44.38;;;41.97;;
13609;SDS011;6876;50.788;4.940;2022-10-26T15:22:01;38.58;;;36.15;;
13609;SDS011;6876;50.788;4.940;2022-10-26T15:24:50;39.65;;;37.08;;
13609;SDS011;6876;50.788;4.940;2022-10-26T15:27:38;66.57;;;62.92;;
13609;SDS011;6876;50.788;4.940;2022-10-26T15:30:26;43.70;;;41.05;;
13609;SDS011;6876;50.788;4.940;2022-10-26T15:33:18;47.88;;;45.17;;
13609;SDS011;6876;50.788;4.940;2022-10-26T15:36:13;43.30;;;41.13;;
13609;SDS011;6876;50.788;4.940;2022-10-26T15:39:01;43.40;;;40.85;;
13609;SDS011;6876;50.788;4.940;2022-10-26T15:41:50;44.15;;;41.53;;
13609;SDS011;6876;50.788;4.940;2022-10-26T15:44:37;45.35;;;42.80;;
13609;SDS011;6876;50.788;4.940;2022-10-26T15:47:27;49.63;;;46.83;;
13609;SDS011;6876;50.788;4.940;2022-10-26T15:50:19;48.90;;;46.35;;
13609;SDS011;6876;50.788;4.940;2022-10-26T15:53:08;50.70;;;48.00;;
13609;SDS011;6876;50.788;4.940;2022-10-26T15:56:02;50.35;;;47.70;;
13609;SDS011;6876;50.788;4.940;2022-10-26T15:59:00;67.38;;;63.08;;
13609;SDS011;6876;50.788;4.940;2022-10-26T16:01:47;47.33;;;44.92;;
13609;SDS011;6876;50.788;4.940;2022-10-26T16:04:36;43.88;;;41.50;;
13609;SDS011;6876;50.788;4.940;2022-10-26T16:07:24;46.25;;;43.75;;
13609;SDS011;6876;50.788;4.940;2022-10-26T16:10:13;40.90;;;38.53;;
13609;SDS011;6876;50.788;4.940;2022-10-26T16:13:03;38.20;;;35.95;;
13609;SDS011;6876;50.788;4.940;2022-10-26T16:15:57;35.55;;;33.25;;
13609;SDS011;6876;50.788;4.940;2022-10-26T16:18:45;33.75;;;31.60;;
13609;SDS011;6876;50.788;4.940;2022-10-26T16:21:33;32.22;;;30.38;;
13609;SDS011;6876;50.788;4.940;2022-10-26T16:24:20;37.28;;;35.00;;
13609;SDS011;6876;50.788;4.940;2022-10-26T16:27:07;34.50;;;32.38;;
13609;SDS011;6876;50.788;4.940;2022-10-26T16:29:55;35.33;;;33.22;;
13609;SDS011;6876;50.788;4.940;2022-10-26T16:32:43;29.73;;;27.67;;
13609;SDS011;6876;50.788;4.940;2022-10-26T16:35:30;28.13;;;26.40;;
13609;SDS011;6876;50.788;4.940;2022-10-26T16:38:18;33.25;;;30.52;;
13609;SDS011;6876;50.788;4.940;2022-10-26T16:41:05;53.95;;;51.00;;
13609;SDS011;6876;50.788;4.940;2022-10-26T16:43:54;34.10;;;32.03;;
13609;SDS011;6876;50.788;4.940;2022-10-26T16:46:42;34.17;;;32.03;;
13609;SDS011;6876;50.788;4.940;2022-10-26T16:49:30;41.35;;;38.90;;
13609;SDS011;6876;50.788;4.940;2022-10-26T16:52:17;44.75;;;41.65;;
13609;SDS011;6876;50.788;4.940;2022-10-26T16:55:05;41.65;;;39.17;;
13609;SDS011;6876;50.788;4.940;2022-10-26T16:57:54;42.45;;;40.00;;
13609;SDS011;6876;50.788;4.940;2022-10-26T17:00:41;43.88;;;41.53;;
13609;SDS011;6876;50.788;4.940;2022-10-26T17:03:28;40.85;;;38.60;;
13609;SDS011;6876;50.788;4.940;2022-10-26T17:06:17;40.88;;;38.58;;
13609;SDS011;6876;50.788;4.940;2022-10-26T17:09:05;37.08;;;34.92;;
13609;SDS011;6876;50.788;4.940;2022-10-26T17:11:52;39.80;;;37.60;;
13609;SDS011;6876;50.788;4.940;2022-10-26T17:14:39;40.38;;;37.63;;
13609;SDS011;6876;50.788;4.940;2022-10-26T17:17:28;39.40;;;37.13;;
13609;SDS011;6876;50.788;4.940;2022-10-26T17:20:15;38.60;;;36.38;;
13609;SDS011;6876;50.788;4.940;2022-10-26T17:23:04;37.42;;;35.00;;